createdAt,value
2023-01-10T00:01:57.215Z,77.88
2023-01-10T00:04:26.515Z,77.54
2023-01-10T00:06:53.432Z,77.64
2023-01-10T00:09:19.976Z,77.93
2023-01-10T00:12:05.379Z,77.59
2023-01-10T00:14:35.138Z,77.59
2023-01-10T00:17:04.805Z,77.37
2023-01-10T00:19:32.046Z,77.76
2023-01-10T00:22:02.689Z,77.93
2023-01-10T00:24:29.324Z,77.75
2023-01-10T00:26:55.790Z,78.33
2023-01-10T00:29:26.000Z,77.92
2023-01-10T00:31:52.438Z,78.38
2023-01-10T00:34:19.139Z,78.46
2023-01-10T00:36:47.847Z,78.58
2023-01-10T00:39:20.206Z,78.62
2023-01-10T00:42:05.661Z,78.86
2023-01-10T00:44:32.137Z,78.78
2023-01-10T00:46:58.535Z,78.80
2023-01-10T00:49:24.826Z,78.64
2023-01-10T00:51:51.249Z,78.82
2023-01-10T00:54:17.773Z,79.00
2023-01-10T00:56:44.234Z,78.96
2023-01-10T00:59:10.698Z,79.14
2023-01-10T01:01:37.207Z,79.20
2023-01-10T01:04:03.815Z,79.06
2023-01-10T01:06:30.347Z,78.70
2023-01-10T01:08:56.778Z,78.67
2023-01-10T01:11:23.135Z,78.47
2023-01-10T01:13:49.550Z,77.97
2023-01-10T01:16:17.122Z,77.74
2023-01-10T01:18:43.584Z,77.94
2023-01-10T01:21:10.056Z,77.66
2023-01-10T01:23:36.747Z,77.80
2023-01-10T01:26:03.395Z,77.68
2023-01-10T01:28:29.816Z,77.52
2023-01-10T01:30:56.244Z,77.55
2023-01-10T01:33:22.842Z,77.55
2023-01-10T01:35:50.600Z,77.63
2023-01-10T01:38:17.882Z,77.94
2023-01-10T01:40:44.914Z,78.50
2023-01-10T01:43:29.117Z,77.61
2023-01-10T01:46:01.058Z,78.22
2023-01-10T01:48:41.301Z,78.73
2023-01-10T01:51:16.257Z,78.36
2023-01-10T01:53:54.836Z,78.67
2023-01-10T01:56:25.532Z,78.16
2023-01-10T01:59:14.104Z,78.53
2023-01-10T02:01:42.787Z,78.26
2023-01-10T02:04:16.950Z,78.48
2023-01-10T02:06:46.043Z,78.42
2023-01-10T02:09:22.060Z,78.00
2023-01-10T02:11:49.021Z,78.53
2023-01-10T02:14:15.644Z,78.42
2023-01-10T02:16:42.278Z,78.11
2023-01-10T02:19:23.894Z,77.74
2023-01-10T02:21:59.393Z,77.56
2023-01-10T02:24:52.159Z,77.39
2023-01-10T02:27:29.109Z,77.13
2023-01-10T02:30:13.885Z,77.10
2023-01-10T02:33:05.315Z,77.13
2023-01-10T02:35:54.988Z,76.63
2023-01-10T02:38:43.092Z,77.64
2023-01-10T02:41:52.700Z,77.25
2023-01-10T02:44:28.810Z,77.65
2023-01-10T02:46:56.678Z,78.57
2023-01-10T02:49:23.045Z,78.43
2023-01-10T02:51:49.399Z,78.59
2023-01-10T02:54:24.230Z,77.48
2023-01-10T02:57:24.735Z,76.99
2023-01-10T03:00:00.503Z,76.17
2023-01-10T03:02:48.241Z,76.55
2023-01-10T03:05:45.776Z,76.14
2023-01-10T03:08:30.905Z,76.38
2023-01-10T03:10:57.262Z,77.93
2023-01-10T03:13:50.081Z,77.17
2023-01-10T03:16:19.486Z,77.80
2023-01-10T03:18:51.573Z,78.13
2023-01-10T03:21:20.219Z,78.57
2023-01-10T03:23:50.646Z,77.88
2023-01-10T03:26:26.903Z,77.22
2023-01-10T03:29:01.094Z,76.91
2023-01-10T03:31:45.813Z,76.15
2023-01-10T03:34:12.959Z,76.85
2023-01-10T03:36:56.606Z,75.59
2023-01-10T03:39:41.162Z,76.24
2023-01-10T03:42:13.582Z,76.16
2023-01-10T03:45:06.522Z,75.26
2023-01-10T03:47:41.474Z,76.32
2023-01-10T03:50:17.335Z,76.20
2023-01-10T03:52:45.417Z,77.01
2023-01-10T03:55:14.505Z,76.62
2023-01-10T03:57:45.589Z,76.44
2023-01-10T04:00:13.770Z,76.94
2023-01-10T04:02:40.187Z,76.87
2023-01-10T04:05:07.800Z,76.66
2023-01-10T04:07:34.663Z,76.91
2023-01-10T04:10:01.119Z,76.83
2023-01-10T04:12:27.613Z,77.31
2023-01-10T04:14:54.067Z,77.06
2023-01-10T04:17:20.627Z,77.33
2023-01-10T04:19:46.954Z,77.30
2023-01-10T04:22:13.355Z,76.95
2023-01-10T04:24:40.250Z,77.06
2023-01-10T04:27:07.036Z,77.20
2023-01-10T04:29:33.381Z,77.48
2023-01-10T04:32:00.868Z,77.31
2023-01-10T04:34:27.185Z,77.51
2023-01-10T04:36:53.601Z,77.32
2023-01-10T04:39:19.944Z,77.77
2023-01-10T04:41:46.297Z,77.94
2023-01-10T04:44:12.844Z,77.90
2023-01-10T04:46:41.983Z,77.69
2023-01-10T04:49:10.007Z,78.14
2023-01-10T04:51:36.436Z,78.07
2023-01-10T04:54:03.013Z,78.38
2023-01-10T04:56:29.495Z,78.42
2023-01-10T04:58:56.279Z,78.01
2023-01-10T05:01:25.112Z,77.84
2023-01-10T05:03:53.668Z,78.28
2023-01-10T05:06:21.458Z,78.45
2023-01-10T05:08:48.027Z,78.57
2023-01-10T05:11:14.461Z,78.64
2023-01-10T05:13:41.458Z,78.36
2023-01-10T05:16:08.283Z,78.73
2023-01-10T05:18:34.859Z,78.66
2023-01-10T05:21:09.685Z,78.05
2023-01-10T05:23:36.962Z,78.41
2023-01-10T05:26:23.214Z,77.10
2023-01-10T05:28:49.706Z,78.58
2023-01-10T05:31:18.626Z,78.34
2023-01-10T05:33:51.446Z,78.02
2023-01-10T05:36:18.945Z,78.62
2023-01-10T05:38:45.662Z,78.65
2023-01-10T05:41:12.100Z,78.79
2023-01-10T05:43:38.474Z,78.71
2023-01-10T05:46:04.939Z,78.86
2023-01-10T05:48:31.340Z,79.01
2023-01-10T05:50:57.724Z,78.66
2023-01-10T05:53:24.174Z,78.68
2023-01-10T05:55:58.393Z,77.76
2023-01-10T05:58:25.235Z,78.67
2023-01-10T06:00:52.256Z,78.76
2023-01-10T06:03:19.163Z,78.76
2023-01-10T06:05:47.220Z,78.68
2023-01-10T06:08:15.050Z,78.84
2023-01-10T06:10:42.246Z,78.75
2023-01-10T06:13:09.729Z,78.60
2023-01-10T06:15:36.735Z,78.85
2023-01-10T06:18:03.279Z,78.33
2023-01-10T06:20:29.748Z,78.48
2023-01-10T06:22:56.195Z,78.48
2023-01-10T06:25:22.634Z,78.63
2023-01-10T06:27:48.999Z,78.96
2023-01-10T06:30:15.683Z,78.50
2023-01-10T06:35:08.924Z,78.34
2023-01-10T06:37:35.492Z,78.65
2023-01-10T06:40:02.548Z,78.28
2023-01-10T06:42:29.142Z,78.67
2023-01-10T06:44:55.689Z,78.66
2023-01-10T06:47:22.249Z,78.26
2023-01-10T06:49:48.786Z,78.84
2023-01-10T06:52:15.333Z,78.47
2023-01-10T06:54:41.875Z,78.70
2023-01-10T06:57:08.940Z,78.88
2023-01-10T06:59:35.574Z,78.62
2023-01-10T07:02:02.198Z,78.60
2023-01-10T07:04:28.782Z,78.42
2023-01-10T07:06:55.297Z,78.78
2023-01-10T07:09:21.749Z,78.83
2023-01-10T07:11:48.267Z,78.98
2023-01-10T07:14:14.698Z,78.84
2023-01-10T07:16:41.206Z,78.78
2023-01-10T07:19:07.726Z,78.43
2023-01-10T07:21:34.226Z,78.09
2023-01-10T07:24:02.654Z,77.97
2023-01-10T07:26:30.071Z,78.29
2023-01-10T07:28:56.930Z,78.08
2023-01-10T07:31:24.443Z,78.03
2023-01-10T07:33:51.970Z,77.87
2023-01-10T07:36:19.155Z,78.24
2023-01-10T07:38:45.705Z,78.03
2023-01-10T07:41:12.510Z,78.39
2023-01-10T07:43:39.072Z,78.55
2023-01-10T07:46:09.434Z,78.47
2023-01-10T07:48:36.868Z,78.77
2023-01-10T07:51:03.692Z,78.90
2023-01-10T07:53:30.179Z,78.96
2023-01-10T07:56:01.348Z,78.92
2023-01-10T07:58:29.099Z,79.26
2023-01-10T08:01:00.505Z,78.66
2023-01-10T08:03:27.753Z,79.24
2023-01-10T08:05:59.391Z,78.43
2023-01-10T08:08:26.143Z,79.11
2023-01-10T08:10:52.663Z,79.15
2023-01-10T08:13:19.495Z,79.11
2023-01-10T08:15:47.417Z,78.59
2023-01-10T08:18:14.166Z,79.10
2023-01-10T08:20:40.992Z,78.69
2023-01-10T08:23:07.560Z,78.54
2023-01-10T08:25:34.117Z,78.67
2023-01-10T08:28:00.765Z,78.71
2023-01-10T08:30:27.224Z,79.03
2023-01-10T08:32:53.667Z,79.03
2023-01-10T08:35:20.442Z,78.72
2023-01-10T08:37:47.168Z,78.61
2023-01-10T08:40:13.796Z,78.59
2023-01-10T08:42:40.402Z,78.25
2023-01-10T08:45:07.470Z,78.35
2023-01-10T08:47:37.501Z,78.27
2023-01-10T08:50:07.785Z,78.48
2023-01-10T08:52:34.963Z,78.19
2023-01-10T08:55:01.462Z,78.54
2023-01-10T08:57:27.946Z,78.74
2023-01-10T08:59:54.383Z,78.92
2023-01-10T09:02:20.943Z,78.77
2023-01-10T09:04:47.530Z,78.50
2023-01-10T09:07:14.100Z,78.50
2023-01-10T09:09:40.590Z,78.33
2023-01-10T09:12:27.094Z,79.08
2023-01-10T09:14:53.595Z,78.43
2023-01-10T09:17:20.100Z,78.14
2023-01-10T09:19:46.616Z,78.40
2023-01-10T09:22:13.149Z,78.46
2023-01-10T09:24:40.037Z,78.93
2023-01-10T09:27:06.591Z,79.03
2023-01-10T09:29:33.130Z,78.43
2023-01-10T09:31:59.656Z,78.82
2023-01-10T09:34:26.397Z,78.67
2023-01-10T09:36:54.013Z,78.69
2023-01-10T09:39:21.595Z,78.43
2023-01-10T09:42:19.080Z,77.00
2023-01-10T09:45:24.603Z,76.95
2023-01-10T09:48:08.115Z,76.95
2023-01-10T09:50:46.437Z,77.61
2023-01-10T09:53:18.093Z,77.94
2023-01-10T09:55:49.924Z,77.93
2023-01-10T09:58:19.218Z,77.97
2023-01-10T10:00:54.787Z,77.68
2023-01-10T10:03:31.531Z,78.51
2023-01-10T10:06:11.246Z,78.18
2023-01-10T10:08:40.994Z,78.30
2023-01-10T10:11:23.590Z,76.84
2023-01-10T10:14:02.966Z,78.09
2023-01-10T10:16:49.603Z,77.18
2023-01-10T10:19:40.963Z,77.08
2023-01-10T10:22:34.952Z,77.17
2023-01-10T10:25:42.815Z,75.45
2023-01-10T10:28:15.037Z,77.75
2023-01-10T10:30:47.514Z,77.33
2023-01-10T10:33:14.042Z,77.70
2023-01-10T10:35:49.750Z,76.67
2023-01-10T10:38:30.072Z,75.53
2023-01-10T10:41:00.007Z,77.43
2023-01-10T10:43:37.991Z,75.79
2023-01-10T10:46:13.277Z,77.31
2023-01-10T10:49:17.271Z,76.63
2023-01-10T10:51:52.175Z,77.13
2023-01-10T10:54:19.166Z,78.71
2023-01-10T10:56:45.995Z,78.98
2023-01-10T10:59:18.865Z,77.46
2023-01-10T11:01:49.849Z,78.56
2023-01-10T11:04:21.165Z,77.95
2023-01-10T11:06:50.886Z,78.58
2023-01-10T11:09:25.591Z,78.24
2023-01-10T11:11:54.303Z,78.09
2023-01-10T11:14:48.922Z,75.24
2023-01-10T11:17:29.131Z,77.08
2023-01-10T11:20:02.022Z,77.21
2023-01-10T11:22:30.237Z,74.86
2023-01-10T11:25:01.213Z,77.20
2023-01-10T11:27:49.918Z,75.51
2023-01-10T11:30:23.702Z,77.11
2023-01-10T11:32:57.004Z,76.35
2023-01-10T11:35:28.520Z,76.68
2023-01-10T11:38:04.423Z,76.50
2023-01-10T11:40:37.855Z,76.36
2023-01-10T11:43:26.294Z,75.69
2023-01-10T11:46:02.607Z,76.18
2023-01-10T11:49:04.354Z,75.89
2023-01-10T11:51:39.608Z,75.25
2023-01-10T11:54:16.330Z,76.03
2023-01-10T11:57:00.727Z,77.80
2023-01-10T11:59:29.089Z,77.50
2023-01-10T12:02:23.389Z,75.94
2023-01-10T12:04:52.699Z,77.30
2023-01-10T12:07:19.400Z,77.28
2023-01-10T12:09:56.556Z,75.71
2023-01-10T12:12:35.254Z,74.63
2023-01-10T12:15:29.686Z,74.19
2023-01-10T12:17:59.380Z,75.99
2023-01-10T12:20:32.414Z,75.50
2023-01-10T12:23:00.598Z,72.19
2023-01-10T12:25:27.528Z,76.48
2023-01-10T12:27:57.713Z,76.40
2023-01-10T12:30:36.637Z,75.13
2023-01-10T12:35:56.868Z,76.04
2023-01-10T12:38:50.960Z,73.09
2023-01-10T12:41:41.329Z,71.83
2023-01-10T12:44:16.441Z,74.46
2023-01-10T12:47:10.605Z,73.70
2023-01-10T12:53:00.793Z,72.26
2023-01-10T12:55:36.764Z,73.35
2023-01-10T12:58:05.280Z,75.43
2023-01-10T13:00:48.220Z,73.95
2023-01-10T13:03:25.555Z,73.07
2023-01-10T13:05:53.129Z,75.61
2023-01-10T13:08:22.449Z,75.13
2023-01-10T13:10:53.157Z,75.26
2023-01-10T13:13:28.760Z,76.05
2023-01-10T13:16:14.175Z,72.96
2023-01-10T13:19:00.996Z,72.94
2023-01-10T13:21:28.282Z,75.79
2023-01-10T13:24:00.671Z,74.44
2023-01-10T13:26:27.639Z,75.71
2023-01-10T13:28:57.269Z,74.67
2023-01-10T13:31:31.681Z,74.19
2023-01-10T13:34:11.866Z,72.44
2023-01-10T13:36:43.943Z,73.90
2023-01-10T13:39:30.638Z,72.21
2023-01-10T13:42:15.721Z,75.28
2023-01-10T13:45:00.280Z,72.58
2023-01-10T13:47:39.078Z,72.96
2023-01-10T13:50:23.685Z,72.86
2023-01-10T13:52:53.664Z,75.61
2023-01-10T13:55:24.609Z,75.02
2023-01-10T13:57:55.649Z,74.59
2023-01-10T14:00:52.921Z,72.31
2023-01-10T14:03:47.938Z,73.21
2023-01-10T14:06:21.299Z,74.90
2023-01-10T14:08:53.957Z,74.03
2023-01-10T14:11:23.612Z,74.80
2023-01-10T14:13:58.058Z,74.31
2023-01-10T14:19:23.783Z,71.47
2023-01-10T14:21:55.088Z,74.49
2023-01-10T14:24:28.372Z,73.70
2023-01-10T14:26:58.448Z,75.13
2023-01-10T14:29:30.730Z,74.43
2023-01-10T14:31:59.187Z,74.58
2023-01-10T14:34:28.844Z,74.63
2023-01-10T14:37:00.875Z,74.28
2023-01-10T14:39:29.333Z,75.12
2023-01-10T14:42:02.378Z,74.25
2023-01-10T14:44:37.084Z,71.35
2023-01-10T14:47:04.634Z,75.14
2023-01-10T14:49:35.397Z,73.84
2023-01-10T14:52:23.952Z,72.96
2023-01-10T14:55:11.434Z,73.08
2023-01-10T14:57:38.291Z,75.33
2023-01-10T15:00:17.940Z,73.29
2023-01-10T15:02:46.323Z,75.24
2023-01-10T15:05:20.202Z,72.74
2023-01-10T15:07:46.846Z,74.93
2023-01-10T15:10:44.108Z,73.31
2023-01-10T15:13:16.110Z,73.58
2023-01-10T15:15:45.681Z,74.95
2023-01-10T15:18:43.386Z,71.61
2023-01-10T15:21:13.474Z,74.28
2023-01-10T15:23:42.742Z,74.08
2023-01-10T15:26:21.418Z,74.38
2023-01-10T15:29:06.868Z,72.71
2023-01-10T15:31:37.973Z,74.33
2023-01-10T15:34:08.842Z,73.69
2023-01-10T15:36:35.541Z,75.04
2023-01-10T15:39:02.332Z,74.33
2023-01-10T15:41:31.121Z,74.76
2023-01-10T15:44:23.996Z,72.77
2023-01-10T15:46:55.880Z,73.26
2023-01-10T15:49:25.294Z,74.14
2023-01-10T15:51:52.369Z,74.48
2023-01-10T15:54:18.920Z,74.76
2023-01-10T15:56:53.788Z,72.16
2023-01-10T15:59:25.433Z,73.75
2023-01-10T16:01:59.824Z,72.95
2023-01-10T16:04:26.844Z,74.68
2023-01-10T16:07:05.719Z,74.45
2023-01-10T16:09:32.499Z,74.42
2023-01-10T16:12:17.861Z,74.42
2023-01-10T16:14:44.333Z,73.98
2023-01-10T16:17:12.467Z,73.86
2023-01-10T16:19:39.007Z,73.92
2023-01-10T16:22:05.756Z,73.80
2023-01-10T16:24:35.980Z,73.19
2023-01-10T16:27:06.403Z,72.51
2023-01-10T16:29:33.700Z,74.22
2023-01-10T16:32:00.231Z,73.77
2023-01-10T16:34:26.798Z,74.43
2023-01-10T16:36:53.409Z,73.89
2023-01-10T16:39:22.420Z,73.15
2023-01-10T16:42:07.912Z,73.00
2023-01-10T16:44:35.119Z,72.71
2023-01-10T16:47:04.904Z,72.99
2023-01-10T16:49:33.029Z,73.00
2023-01-10T16:51:59.561Z,72.93
2023-01-10T16:54:26.103Z,72.86
2023-01-10T16:56:52.758Z,72.76
2023-01-10T16:59:20.464Z,72.35
2023-01-10T17:01:51.311Z,71.91
2023-01-10T17:04:24.198Z,70.78
2023-01-10T17:06:50.943Z,72.67
2023-01-10T17:09:23.747Z,69.58
2023-01-10T17:11:56.687Z,69.74
2023-01-10T17:14:23.251Z,65.28
2023-01-10T17:16:50.103Z,71.30
2023-01-10T17:19:16.762Z,70.92
2023-01-10T17:21:43.273Z,71.26
2023-01-10T17:24:11.198Z,71.72
2023-01-10T17:26:37.887Z,71.98
2023-01-10T17:29:04.379Z,71.84
2023-01-10T17:31:31.051Z,71.82
2023-01-10T17:33:57.542Z,71.65
2023-01-10T17:36:29.105Z,70.95
2023-01-10T17:38:59.552Z,68.21
2023-01-10T17:41:26.024Z,70.95
2023-01-10T17:43:52.511Z,71.16
2023-01-10T17:46:19.034Z,71.08
2023-01-10T17:48:45.434Z,71.55
2023-01-10T17:51:13.207Z,71.43
2023-01-10T17:53:40.628Z,71.64
2023-01-10T17:56:07.794Z,71.97
2023-01-10T17:58:34.376Z,71.82
2023-01-10T18:01:01.031Z,72.60
2023-01-10T18:03:27.895Z,72.78
2023-01-10T18:05:56.917Z,72.85
2023-01-10T18:08:24.356Z,72.54
2023-01-10T18:10:51.206Z,72.83
2023-01-10T18:13:20.414Z,73.12
2023-01-10T18:15:49.653Z,73.30
2023-01-10T18:18:16.765Z,73.58
2023-01-10T18:20:44.225Z,73.97
2023-01-10T18:23:21.239Z,73.64
2023-01-10T18:25:51.874Z,73.77
2023-01-10T18:28:21.496Z,74.08
2023-01-10T18:30:50.447Z,74.23
2023-01-10T18:33:16.961Z,74.54
2023-01-10T18:35:44.967Z,75.34
2023-01-10T18:38:12.796Z,75.21
2023-01-10T18:40:41.243Z,75.13
2023-01-10T18:43:14.123Z,75.64
2023-01-10T18:45:42.773Z,75.66
2023-01-10T18:48:09.953Z,76.04
2023-01-10T18:50:36.513Z,76.05
2023-01-10T18:53:04.351Z,76.24
2023-01-10T18:55:30.899Z,76.16
2023-01-10T18:57:57.653Z,76.56
2023-01-10T19:00:24.422Z,76.53
2023-01-10T19:02:51.120Z,76.83
2023-01-10T19:05:17.817Z,76.96
2023-01-10T19:07:44.383Z,76.98
2023-01-10T19:10:11.112Z,77.14
2023-01-10T19:12:56.412Z,77.65
2023-01-10T19:15:22.883Z,77.58
2023-01-10T19:17:49.305Z,77.51
2023-01-10T19:20:16.143Z,78.12
2023-01-10T19:22:42.615Z,78.02
2023-01-10T19:25:09.640Z,78.29
2023-01-10T19:27:36.248Z,78.23
2023-01-10T19:30:03.133Z,78.59
2023-01-10T19:32:29.632Z,78.24
2023-01-10T19:34:56.165Z,78.68
2023-01-10T19:37:22.574Z,78.56
2023-01-10T19:39:49.102Z,78.61
2023-01-10T19:42:15.641Z,78.69
2023-01-10T19:44:42.936Z,78.44
2023-01-10T19:47:14.740Z,78.70
2023-01-10T19:49:41.566Z,78.43
2023-01-10T19:52:08.728Z,78.63
2023-01-10T19:54:36.604Z,78.75
2023-01-10T19:57:03.487Z,79.19
2023-01-10T19:59:32.465Z,79.31
2023-01-10T20:02:00.877Z,78.99
2023-01-10T20:04:27.540Z,79.51
2023-01-10T20:06:54.098Z,79.34
2023-01-10T20:09:20.669Z,79.11
2023-01-10T20:11:47.189Z,79.56
2023-01-10T20:14:18.927Z,79.30
2023-01-10T20:16:45.718Z,79.19
2023-01-10T20:19:12.382Z,79.61
2023-01-10T20:21:40.619Z,79.39
2023-01-10T20:24:19.168Z,79.00
2023-01-10T20:26:48.077Z,79.38
2023-01-10T20:29:15.584Z,79.50
2023-01-10T20:31:48.089Z,79.83
2023-01-10T20:34:14.829Z,79.56
2023-01-10T20:36:41.374Z,79.45
2023-01-10T20:39:08.104Z,79.77
2023-01-10T20:41:34.787Z,79.53
2023-01-10T20:44:01.386Z,79.79
2023-01-10T20:46:31.703Z,79.54
2023-01-10T20:49:02.191Z,79.72
2023-01-10T20:51:35.072Z,79.85
2023-01-10T20:54:02.585Z,79.53
2023-01-10T20:56:31.842Z,79.67
2023-01-10T20:58:58.872Z,79.88
2023-01-10T21:01:34.028Z,79.82
2023-01-10T21:04:02.600Z,79.73
2023-01-10T21:06:29.306Z,79.86
2023-01-10T21:08:56.224Z,79.48
2023-01-10T21:11:22.755Z,79.81
2023-01-10T21:13:49.444Z,79.87
2023-01-10T21:16:19.480Z,79.83
2023-01-10T21:18:46.770Z,79.79
2023-01-10T21:21:15.398Z,80.04
2023-01-10T21:23:42.409Z,80.04
2023-01-10T21:26:12.032Z,80.05
2023-01-10T21:28:46.578Z,79.66
2023-01-10T21:31:21.168Z,78.93
2023-01-10T21:33:49.235Z,79.92
2023-01-10T21:36:16.077Z,79.96
2023-01-10T21:38:42.598Z,79.94
2023-01-10T21:41:35.690Z,79.44
2023-01-10T21:44:04.061Z,79.82
2023-01-10T21:46:30.606Z,80.08
2023-01-10T21:48:57.090Z,80.10
2023-01-10T21:51:23.630Z,80.20
2023-01-10T21:53:50.252Z,80.16
2023-01-10T21:56:16.735Z,80.03
2023-01-10T21:58:43.406Z,80.18
2023-01-10T22:01:10.034Z,80.31
2023-01-10T22:03:36.598Z,80.23
2023-01-10T22:06:03.181Z,80.46
2023-01-10T22:08:29.591Z,80.27
2023-01-10T22:10:56.201Z,80.52
2023-01-10T22:13:26.075Z,80.16
2023-01-10T22:16:02.042Z,80.22
2023-01-10T22:18:30.697Z,80.42
2023-01-10T22:20:58.458Z,80.50
2023-01-10T22:23:25.125Z,80.46
2023-01-10T22:26:08.106Z,79.68
2023-01-10T22:28:35.000Z,80.45
2023-01-10T22:31:02.286Z,80.40
2023-01-10T22:33:34.308Z,79.78
2023-01-10T22:36:04.916Z,79.91
2023-01-10T22:38:32.820Z,80.45
2023-01-10T22:41:13.588Z,79.66
2023-01-10T22:43:40.185Z,80.29
2023-01-10T22:46:07.496Z,80.32
2023-01-10T22:48:38.218Z,79.81
2023-01-10T22:51:05.694Z,80.18
2023-01-10T22:53:32.853Z,80.36
2023-01-10T22:56:00.727Z,80.30
2023-01-10T22:58:27.730Z,79.76
2023-01-10T23:00:54.266Z,80.07
2023-01-10T23:03:20.850Z,79.99
2023-01-10T23:05:47.315Z,79.99
2023-01-10T23:08:14.092Z,79.86
2023-01-10T23:10:40.715Z,80.29
2023-01-10T23:13:08.910Z,80.07
2023-01-10T23:15:35.644Z,80.06
2023-01-10T23:18:02.149Z,80.07
2023-01-10T23:20:28.707Z,80.17
2023-01-10T23:22:55.204Z,80.45
2023-01-10T23:25:21.702Z,80.55
2023-01-10T23:27:48.266Z,80.92
2023-01-10T23:30:15.158Z,81.20
2023-01-10T23:32:41.891Z,80.92
2023-01-10T23:35:09.050Z,80.97
2023-01-10T23:37:35.562Z,80.98
2023-01-10T23:40:02.090Z,81.11
2023-01-10T23:42:28.526Z,81.35
2023-01-10T23:44:55.062Z,81.29
2023-01-10T23:47:21.531Z,81.35
2023-01-10T23:49:48.007Z,81.19
2023-01-10T23:52:14.908Z,81.18
2023-01-10T23:54:41.517Z,81.40
2023-01-10T23:57:08.058Z,81.10
2023-01-10T23:59:34.539Z,81.06
